Clyde Hill, Washington
Current Conditions -  °F | °C
As of 4:53 AM on Saturday 20 Dec 2014 (Local Time) from KBFI Reporting Station
Light Rain Light Rain  
Wind Chill: 43°   Ceiling: 4800
Heat Index: 47°   Visibility: 10mi
Dew Point: 41°   Wind: 9mph
Humidity: 80%   Direction: 170°S
Pressure: 29.7"   Gusts: NA
Location:  47.6186°N, 122.204°W
Report Text: KBFI 201253Z 17008KT 10SM -RA OVC048 08/05 A2970 RMK AO2 SLP058 P0002 T00830050
Loading
Personal Weather Stations






























Interactive Weather Map New forecast layout! Learn more

10-Day Weather Forecast

Advertisements
Track Severe Weather on mobile